sensor_id;sensor_type;location;lat;lon;timestamp;P1;durP1;ratioP1;P2;durP2;ratioP2
68074;SDS011;54864;52.002;5.468;2023-01-28T00:00:25;10.20;;;9.10;;
68074;SDS011;54864;52.002;5.468;2023-01-28T00:01:26;10.82;;;9.38;;
68074;SDS011;54864;52.002;5.468;2023-01-28T00:02:27;10.77;;;9.07;;
68074;SDS011;54864;52.002;5.468;2023-01-28T00:03:30;11.43;;;9.98;;
68074;SDS011;54864;52.002;5.468;2023-01-28T00:04:30;10.67;;;8.87;;
68074;SDS011;54864;52.002;5.468;2023-01-28T00:05:32;10.90;;;9.55;;
68074;SDS011;54864;52.002;5.468;2023-01-28T00:06:33;11.77;;;10.02;;
68074;SDS011;54864;52.002;5.468;2023-01-28T00:07:35;11.57;;;9.73;;
68074;SDS011;54864;52.002;5.468;2023-01-28T00:08:36;11.13;;;9.57;;
68074;SDS011;54864;52.002;5.468;2023-01-28T00:09:38;12.00;;;10.13;;
68074;SDS011;54864;52.002;5.468;2023-01-28T00:10:39;11.85;;;9.75;;
68074;SDS011;54864;52.002;5.468;2023-01-28T00:11:42;12.23;;;10.15;;
68074;SDS011;54864;52.002;5.468;2023-01-28T00:12:44;13.60;;;10.65;;
68074;SDS011;54864;52.002;5.468;2023-01-28T00:13:49;11.15;;;9.65;;
68074;SDS011;54864;52.002;5.468;2023-01-28T00:14:50;11.85;;;10.02;;
68074;SDS011;54864;52.002;5.468;2023-01-28T00:15:53;12.48;;;9.88;;
68074;SDS011;54864;52.002;5.468;2023-01-28T00:16:55;12.38;;;9.95;;
68074;SDS011;54864;52.002;5.468;2023-01-28T00:17:57;12.15;;;10.00;;
68074;SDS011;54864;52.002;5.468;2023-01-28T00:18:58;14.13;;;10.13;;
68074;SDS011;54864;52.002;5.468;2023-01-28T00:19:59;14.57;;;10.40;;
68074;SDS011;54864;52.002;5.468;2023-01-28T00:21:01;11.20;;;9.90;;
68074;SDS011;54864;52.002;5.468;2023-01-28T00:22:05;13.80;;;10.52;;
68074;SDS011;54864;52.002;5.468;2023-01-28T00:23:06;12.13;;;9.73;;
68074;SDS011;54864;52.002;5.468;2023-01-28T00:24:08;12.57;;;10.18;;
68074;SDS011;54864;52.002;5.468;2023-01-28T00:25:09;12.57;;;10.27;;
68074;SDS011;54864;52.002;5.468;2023-01-28T00:26:12;12.70;;;10.18;;
68074;SDS011;54864;52.002;5.468;2023-01-28T00:27:14;15.00;;;11.18;;
68074;SDS011;54864;52.002;5.468;2023-01-28T00:28:17;13.40;;;10.82;;
68074;SDS011;54864;52.002;5.468;2023-01-28T00:29:18;14.15;;;11.13;;
68074;SDS011;54864;52.002;5.468;2023-01-28T00:30:20;13.63;;;10.88;;
68074;SDS011;54864;52.002;5.468;2023-01-28T00:31:21;14.80;;;11.25;;
68074;SDS011;54864;52.002;5.468;2023-01-28T00:32:25;13.55;;;10.73;;
68074;SDS011;54864;52.002;5.468;2023-01-28T00:33:26;14.13;;;11.23;;
68074;SDS011;54864;52.002;5.468;2023-01-28T00:34:28;14.70;;;11.35;;
68074;SDS011;54864;52.002;5.468;2023-01-28T00:35:29;14.07;;;11.05;;
68074;SDS011;54864;52.002;5.468;2023-01-28T00:36:31;17.25;;;11.77;;
68074;SDS011;54864;52.002;5.468;2023-01-28T00:37:33;14.68;;;10.85;;
68074;SDS011;54864;52.002;5.468;2023-01-28T00:38:36;15.07;;;11.23;;
68074;SDS011;54864;52.002;5.468;2023-01-28T00:39:36;14.13;;;10.80;;
68074;SDS011;54864;52.002;5.468;2023-01-28T00:40:38;14.43;;;11.57;;
68074;SDS011;54864;52.002;5.468;2023-01-28T00:41:39;14.77;;;11.67;;
68074;SDS011;54864;52.002;5.468;2023-01-28T00:42:41;13.70;;;10.38;;
68074;SDS011;54864;52.002;5.468;2023-01-28T00:43:43;14.20;;;11.23;;
68074;SDS011;54864;52.002;5.468;2023-01-28T00:44:45;14.20;;;10.77;;
68074;SDS011;54864;52.002;5.468;2023-01-28T00:45:46;14.65;;;10.55;;
68074;SDS011;54864;52.002;5.468;2023-01-28T00:46:48;12.73;;;10.38;;
68074;SDS011;54864;52.002;5.468;2023-01-28T00:47:49;14.07;;;11.33;;
68074;SDS011;54864;52.002;5.468;2023-01-28T00:48:51;14.63;;;11.25;;
68074;SDS011;54864;52.002;5.468;2023-01-28T00:49:52;16.30;;;11.87;;
68074;SDS011;54864;52.002;5.468;2023-01-28T00:50:54;15.90;;;11.82;;
68074;SDS011;54864;52.002;5.468;2023-01-28T00:51:55;14.88;;;11.55;;
68074;SDS011;54864;52.002;5.468;2023-01-28T00:52:57;14.65;;;11.40;;
68074;SDS011;54864;52.002;5.468;2023-01-28T00:53:58;16.92;;;12.27;;
68074;SDS011;54864;52.002;5.468;2023-01-28T00:55:00;14.63;;;11.25;;
68074;SDS011;54864;52.002;5.468;2023-01-28T00:56:01;15.25;;;11.88;;
68074;SDS011;54864;52.002;5.468;2023-01-28T00:57:03;15.52;;;11.82;;
68074;SDS011;54864;52.002;5.468;2023-01-28T00:58:04;17.57;;;12.67;;
68074;SDS011;54864;52.002;5.468;2023-01-28T00:59:07;15.15;;;11.45;;
68074;SDS011;54864;52.002;5.468;2023-01-28T01:00:09;15.80;;;11.75;;
68074;SDS011;54864;52.002;5.468;2023-01-28T01:01:12;16.23;;;12.25;;
68074;SDS011;54864;52.002;5.468;2023-01-28T01:02:15;16.67;;;12.23;;
68074;SDS011;54864;52.002;5.468;2023-01-28T01:03:17;14.75;;;11.38;;
68074;SDS011;54864;52.002;5.468;2023-01-28T01:04:19;15.02;;;11.68;;
68074;SDS011;54864;52.002;5.468;2023-01-28T01:05:25;15.98;;;11.77;;
68074;SDS011;54864;52.002;5.468;2023-01-28T01:06:28;16.08;;;12.05;;
68074;SDS011;54864;52.002;5.468;2023-01-28T01:07:32;15.80;;;11.38;;
68074;SDS011;54864;52.002;5.468;2023-01-28T01:08:41;15.48;;;11.57;;
68074;SDS011;54864;52.002;5.468;2023-01-28T01:09:49;14.98;;;11.02;;
68074;SDS011;54864;52.002;5.468;2023-01-28T01:10:50;16.42;;;12.68;;
68074;SDS011;54864;52.002;5.468;2023-01-28T01:11:52;17.13;;;11.52;;
68074;SDS011;54864;52.002;5.468;2023-01-28T01:12:53;16.65;;;11.68;;
68074;SDS011;54864;52.002;5.468;2023-01-28T01:13:56;16.30;;;12.15;;
68074;SDS011;54864;52.002;5.468;2023-01-28T01:15:00;15.45;;;11.30;;
68074;SDS011;54864;52.002;5.468;2023-01-28T01:16:03;15.15;;;11.57;;
68074;SDS011;54864;52.002;5.468;2023-01-28T01:17:06;16.30;;;12.15;;
68074;SDS011;54864;52.002;5.468;2023-01-28T01:18:08;15.70;;;11.13;;
68074;SDS011;54864;52.002;5.468;2023-01-28T01:19:09;15.95;;;12.27;;
68074;SDS011;54864;52.002;5.468;2023-01-28T01:20:12;15.95;;;11.35;;
68074;SDS011;54864;52.002;5.468;2023-01-28T01:21:15;16.85;;;11.68;;
68074;SDS011;54864;52.002;5.468;2023-01-28T01:22:18;14.57;;;11.27;;
68074;SDS011;54864;52.002;5.468;2023-01-28T01:23:19;16.15;;;11.45;;
68074;SDS011;54864;52.002;5.468;2023-01-28T01:24:21;14.90;;;11.35;;
68074;SDS011;54864;52.002;5.468;2023-01-28T01:25:22;15.65;;;10.98;;
68074;SDS011;54864;52.002;5.468;2023-01-28T01:26:24;14.32;;;11.20;;
68074;SDS011;54864;52.002;5.468;2023-01-28T01:27:26;15.48;;;11.65;;
68074;SDS011;54864;52.002;5.468;2023-01-28T01:28:28;14.43;;;11.40;;
68074;SDS011;54864;52.002;5.468;2023-01-28T01:29:29;15.27;;;11.15;;
68074;SDS011;54864;52.002;5.468;2023-01-28T01:30:33;14.98;;;11.55;;
68074;SDS011;54864;52.002;5.468;2023-01-28T01:31:34;14.98;;;11.40;;
68074;SDS011;54864;52.002;5.468;2023-01-28T01:32:36;14.80;;;11.20;;
68074;SDS011;54864;52.002;5.468;2023-01-28T01:33:37;14.20;;;11.10;;
68074;SDS011;54864;52.002;5.468;2023-01-28T01:34:39;14.55;;;10.52;;
68074;SDS011;54864;52.002;5.468;2023-01-28T01:35:40;16.27;;;11.73;;
68074;SDS011;54864;52.002;5.468;2023-01-28T01:36:43;14.48;;;11.13;;
68074;SDS011;54864;52.002;5.468;2023-01-28T01:37:45;14.52;;;11.38;;
68074;SDS011;54864;52.002;5.468;2023-01-28T01:38:45;14.10;;;10.98;;
68074;SDS011;54864;52.002;5.468;2023-01-28T01:39:47;14.82;;;11.23;;
68074;SDS011;54864;52.002;5.468;2023-01-28T01:40:49;13.70;;;10.52;;
68074;SDS011;54864;52.002;5.468;2023-01-28T01:41:51;15.45;;;11.23;;
68074;SDS011;54864;52.002;5.468;2023-01-28T01:42:52;12.40;;;10.15;;
68074;SDS011;54864;52.002;5.468;2023-01-28T01:43:54;14.98;;;11.32;;
68074;SDS011;54864;52.002;5.468;2023-01-28T01:44:57;14.40;;;11.10;;
68074;SDS011;54864;52.002;5.468;2023-01-28T01:46:02;17.17;;;11.63;;
68074;SDS011;54864;52.002;5.468;2023-01-28T01:47:03;14.98;;;11.48;;
68074;SDS011;54864;52.002;5.468;2023-01-28T01:48:06;14.75;;;11.00;;
68074;SDS011;54864;52.002;5.468;2023-01-28T01:49:16;13.25;;;10.52;;
68074;SDS011;54864;52.002;5.468;2023-01-28T01:50:23;13.63;;;10.70;;
68074;SDS011;54864;52.002;5.468;2023-01-28T01:51:29;13.95;;;10.95;;
68074;SDS011;54864;52.002;5.468;2023-01-28T01:52:34;14.23;;;11.15;;
68074;SDS011;54864;52.002;5.468;2023-01-28T01:53:36;15.05;;;10.68;;
68074;SDS011;54864;52.002;5.468;2023-01-28T01:54:41;13.32;;;10.77;;
68074;SDS011;54864;52.002;5.468;2023-01-28T01:55:47;13.43;;;11.10;;
68074;SDS011;54864;52.002;5.468;2023-01-28T01:56:51;14.70;;;11.02;;
68074;SDS011;54864;52.002;5.468;2023-01-28T01:57:54;14.48;;;11.23;;
68074;SDS011;54864;52.002;5.468;2023-01-28T01:58:57;13.18;;;10.32;;
68074;SDS011;54864;52.002;5.468;2023-01-28T02:00:02;12.93;;;10.45;;
68074;SDS011;54864;52.002;5.468;2023-01-28T02:01:08;15.32;;;10.63;;
68074;SDS011;54864;52.002;5.468;2023-01-28T02:02:10;12.85;;;10.43;;
68074;SDS011;54864;52.002;5.468;2023-01-28T02:03:13;12.38;;;10.25;;
68074;SDS011;54864;52.002;5.468;2023-01-28T02:04:18;13.85;;;11.07;;
68074;SDS011;54864;52.002;5.468;2023-01-28T02:05:22;13.30;;;10.60;;
68074;SDS011;54864;52.002;5.468;2023-01-28T02:06:23;12.00;;;9.68;;
68074;SDS011;54864;52.002;5.468;2023-01-28T02:07:24;14.57;;;10.82;;
68074;SDS011;54864;52.002;5.468;2023-01-28T02:08:27;14.25;;;10.80;;
68074;SDS011;54864;52.002;5.468;2023-01-28T02:09:28;13.80;;;10.70;;
68074;SDS011;54864;52.002;5.468;2023-01-28T02:10:31;13.38;;;11.00;;
68074;SDS011;54864;52.002;5.468;2023-01-28T02:11:32;14.20;;;10.75;;
68074;SDS011;54864;52.002;5.468;2023-01-28T02:12:35;14.32;;;11.38;;
68074;SDS011;54864;52.002;5.468;2023-01-28T02:13:39;13.38;;;10.50;;
68074;SDS011;54864;52.002;5.468;2023-01-28T02:14:45;13.93;;;10.73;;
68074;SDS011;54864;52.002;5.468;2023-01-28T02:15:50;13.90;;;11.02;;
68074;SDS011;54864;52.002;5.468;2023-01-28T02:16:53;14.35;;;11.43;;
68074;SDS011;54864;52.002;5.468;2023-01-28T02:17:54;14.52;;;11.70;;
68074;SDS011;54864;52.002;5.468;2023-01-28T02:18:57;13.02;;;10.55;;
68074;SDS011;54864;52.002;5.468;2023-01-28T02:19:59;13.20;;;10.88;;
68074;SDS011;54864;52.002;5.468;2023-01-28T02:21:08;13.50;;;10.63;;
68074;SDS011;54864;52.002;5.468;2023-01-28T02:22:43;12.75;;;10.35;;
68074;SDS011;54864;52.002;5.468;2023-01-28T02:24:03;13.95;;;10.35;;
68074;SDS011;54864;52.002;5.468;2023-01-28T02:26:55;14.18;;;11.35;;
68074;SDS011;54864;52.002;5.468;2023-01-28T02:28:17;13.40;;;10.87;;
68074;SDS011;54864;52.002;5.468;2023-01-28T02:29:24;14.55;;;11.23;;
68074;SDS011;54864;52.002;5.468;2023-01-28T02:30:34;14.77;;;11.23;;
68074;SDS011;54864;52.002;5.468;2023-01-28T02:31:39;15.07;;;11.35;;
68074;SDS011;54864;52.002;5.468;2023-01-28T02:32:48;16.58;;;12.30;;
68074;SDS011;54864;52.002;5.468;2023-01-28T02:33:55;14.82;;;11.20;;
68074;SDS011;54864;52.002;5.468;2023-01-28T02:35:04;13.77;;;10.93;;
68074;SDS011;54864;52.002;5.468;2023-01-28T02:36:12;13.25;;;10.82;;
68074;SDS011;54864;52.002;5.468;2023-01-28T02:37:23;15.13;;;11.45;;
68074;SDS011;54864;52.002;5.468;2023-01-28T02:38:28;15.23;;;11.70;;
68074;SDS011;54864;52.002;5.468;2023-01-28T02:39:34;15.43;;;11.38;;
68074;SDS011;54864;52.002;5.468;2023-01-28T02:40:37;15.52;;;11.23;;
68074;SDS011;54864;52.002;5.468;2023-01-28T02:42:06;12.82;;;10.20;;
68074;SDS011;54864;52.002;5.468;2023-01-28T02:43:11;14.40;;;11.02;;
68074;SDS011;54864;52.002;5.468;2023-01-28T02:44:16;14.27;;;11.02;;
68074;SDS011;54864;52.002;5.468;2023-01-28T02:45:20;14.50;;;11.25;;
68074;SDS011;54864;52.002;5.468;2023-01-28T02:46:32;15.40;;;10.57;;
68074;SDS011;54864;52.002;5.468;2023-01-28T02:48:05;16.38;;;12.50;;
68074;SDS011;54864;52.002;5.468;2023-01-28T02:49:07;14.82;;;10.55;;
68074;SDS011;54864;52.002;5.468;2023-01-28T02:50:11;13.90;;;11.18;;
68074;SDS011;54864;52.002;5.468;2023-01-28T02:51:17;14.02;;;10.95;;
68074;SDS011;54864;52.002;5.468;2023-01-28T02:52:29;13.68;;;10.68;;
68074;SDS011;54864;52.002;5.468;2023-01-28T02:53:55;16.08;;;11.73;;
68074;SDS011;54864;52.002;5.468;2023-01-28T02:55:05;15.68;;;11.93;;
68074;SDS011;54864;52.002;5.468;2023-01-28T02:56:16;13.85;;;11.18;;
68074;SDS011;54864;52.002;5.468;2023-01-28T02:57:30;15.02;;;11.25;;
68074;SDS011;54864;52.002;5.468;2023-01-28T02:58:39;16.13;;;11.83;;
68074;SDS011;54864;52.002;5.468;2023-01-28T02:59:48;15.55;;;11.98;;
68074;SDS011;54864;52.002;5.468;2023-01-28T03:00:55;13.35;;;10.77;;
68074;SDS011;54864;52.002;5.468;2023-01-28T03:02:06;15.45;;;11.95;;
68074;SDS011;54864;52.002;5.468;2023-01-28T03:03:13;14.68;;;11.18;;
68074;SDS011;54864;52.002;5.468;2023-01-28T03:04:21;17.10;;;12.23;;
68074;SDS011;54864;52.002;5.468;2023-01-28T03:05:26;16.15;;;12.40;;
68074;SDS011;54864;52.002;5.468;2023-01-28T03:06:32;14.52;;;11.32;;
68074;SDS011;54864;52.002;5.468;2023-01-28T03:07:38;15.25;;;11.23;;
68074;SDS011;54864;52.002;5.468;2023-01-28T03:08:44;16.10;;;11.73;;
68074;SDS011;54864;52.002;5.468;2023-01-28T03:10:08;15.15;;;12.07;;
68074;SDS011;54864;52.002;5.468;2023-01-28T03:11:15;15.27;;;11.90;;
68074;SDS011;54864;52.002;5.468;2023-01-28T03:12:36;14.38;;;11.50;;
68074;SDS011;54864;52.002;5.468;2023-01-28T03:13:59;14.50;;;11.43;;
68074;SDS011;54864;52.002;5.468;2023-01-28T03:15:21;16.98;;;12.30;;
68074;SDS011;54864;52.002;5.468;2023-01-28T03:16:43;13.98;;;11.25;;
68074;SDS011;54864;52.002;5.468;2023-01-28T03:18:05;15.90;;;11.93;;
68074;SDS011;54864;52.002;5.468;2023-01-28T03:19:28;15.48;;;11.35;;
68074;SDS011;54864;52.002;5.468;2023-01-28T03:20:49;15.63;;;12.05;;
68074;SDS011;54864;52.002;5.468;2023-01-28T03:22:15;17.17;;;12.90;;
68074;SDS011;54864;52.002;5.468;2023-01-28T03:23:36;17.35;;;12.32;;
68074;SDS011;54864;52.002;5.468;2023-01-28T03:25:02;15.07;;;11.93;;
68074;SDS011;54864;52.002;5.468;2023-01-28T03:26:22;15.82;;;11.85;;
68074;SDS011;54864;52.002;5.468;2023-01-28T03:27:47;17.35;;;12.65;;
68074;SDS011;54864;52.002;5.468;2023-01-28T03:29:11;15.45;;;11.85;;
68074;SDS011;54864;52.002;5.468;2023-01-28T03:30:36;14.88;;;11.80;;
68074;SDS011;54864;52.002;5.468;2023-01-28T03:31:58;16.95;;;12.40;;
68074;SDS011;54864;52.002;5.468;2023-01-28T03:33:19;15.75;;;12.05;;
68074;SDS011;54864;52.002;5.468;2023-01-28T03:34:39;15.68;;;12.02;;
68074;SDS011;54864;52.002;5.468;2023-01-28T03:35:59;15.80;;;12.57;;
68074;SDS011;54864;52.002;5.468;2023-01-28T03:37:19;16.05;;;12.32;;
68074;SDS011;54864;52.002;5.468;2023-01-28T03:38:21;16.40;;;12.50;;
68074;SDS011;54864;52.002;5.468;2023-01-28T03:39:22;17.02;;;12.15;;
68074;SDS011;54864;52.002;5.468;2023-01-28T03:40:26;17.20;;;12.68;;
68074;SDS011;54864;52.002;5.468;2023-01-28T03:41:28;15.63;;;11.82;;
68074;SDS011;54864;52.002;5.468;2023-01-28T03:42:29;16.23;;;12.80;;
68074;SDS011;54864;52.002;5.468;2023-01-28T03:43:31;15.60;;;11.93;;
68074;SDS011;54864;52.002;5.468;2023-01-28T03:44:32;17.08;;;12.38;;
68074;SDS011;54864;52.002;5.468;2023-01-28T03:45:54;16.65;;;12.00;;
68074;SDS011;54864;52.002;5.468;2023-01-28T03:46:56;15.32;;;12.02;;
68074;SDS011;54864;52.002;5.468;2023-01-28T03:47:56;19.10;;;14.07;;
68074;SDS011;54864;52.002;5.468;2023-01-28T03:48:58;19.33;;;12.68;;
68074;SDS011;54864;52.002;5.468;2023-01-28T03:49:59;16.67;;;13.07;;
68074;SDS011;54864;52.002;5.468;2023-01-28T03:51:00;15.80;;;12.07;;
68074;SDS011;54864;52.002;5.468;2023-01-28T03:52:01;17.13;;;12.80;;
68074;SDS011;54864;52.002;5.468;2023-01-28T03:53:03;17.35;;;12.65;;
68074;SDS011;54864;52.002;5.468;2023-01-28T03:54:13;17.10;;;13.02;;
68074;SDS011;54864;52.002;5.468;2023-01-28T03:55:14;15.90;;;12.50;;
68074;SDS011;54864;52.002;5.468;2023-01-28T03:56:16;17.33;;;12.40;;
68074;SDS011;54864;52.002;5.468;2023-01-28T03:57:18;18.23;;;13.35;;
68074;SDS011;54864;52.002;5.468;2023-01-28T03:58:22;19.90;;;12.90;;
68074;SDS011;54864;52.002;5.468;2023-01-28T03:59:26;16.65;;;12.90;;
68074;SDS011;54864;52.002;5.468;2023-01-28T04:00:27;18.80;;;12.48;;
68074;SDS011;54864;52.002;5.468;2023-01-28T04:01:30;18.20;;;13.45;;
68074;SDS011;54864;52.002;5.468;2023-01-28T04:02:31;16.67;;;12.57;;
68074;SDS011;54864;52.002;5.468;2023-01-28T04:03:34;18.65;;;13.10;;
68074;SDS011;54864;52.002;5.468;2023-01-28T04:04:37;16.45;;;12.85;;
68074;SDS011;54864;52.002;5.468;2023-01-28T04:05:38;17.87;;;12.57;;
68074;SDS011;54864;52.002;5.468;2023-01-28T04:06:39;16.15;;;12.55;;
68074;SDS011;54864;52.002;5.468;2023-01-28T04:07:40;18.13;;;13.18;;
68074;SDS011;54864;52.002;5.468;2023-01-28T04:08:42;18.33;;;13.77;;
68074;SDS011;54864;52.002;5.468;2023-01-28T04:09:51;17.58;;;12.98;;
68074;SDS011;54864;52.002;5.468;2023-01-28T04:10:53;15.70;;;12.73;;
68074;SDS011;54864;52.002;5.468;2023-01-28T04:11:54;17.38;;;12.98;;
68074;SDS011;54864;52.002;5.468;2023-01-28T04:12:56;16.92;;;13.15;;
68074;SDS011;54864;52.002;5.468;2023-01-28T04:13:57;18.33;;;13.10;;
68074;SDS011;54864;52.002;5.468;2023-01-28T04:14:59;20.15;;;14.25;;
68074;SDS011;54864;52.002;5.468;2023-01-28T04:15:59;18.60;;;13.80;;
68074;SDS011;54864;52.002;5.468;2023-01-28T04:17:04;19.48;;;12.90;;
68074;SDS011;54864;52.002;5.468;2023-01-28T04:18:06;20.42;;;13.38;;
68074;SDS011;54864;52.002;5.468;2023-01-28T04:19:08;17.55;;;12.88;;
68074;SDS011;54864;52.002;5.468;2023-01-28T04:20:10;20.27;;;13.52;;
68074;SDS011;54864;52.002;5.468;2023-01-28T04:21:12;21.40;;;14.52;;
68074;SDS011;54864;52.002;5.468;2023-01-28T04:22:13;17.45;;;13.65;;
68074;SDS011;54864;52.002;5.468;2023-01-28T04:23:15;19.08;;;13.32;;
68074;SDS011;54864;52.002;5.468;2023-01-28T04:24:16;19.45;;;14.05;;
68074;SDS011;54864;52.002;5.468;2023-01-28T04:25:18;17.58;;;13.27;;
68074;SDS011;54864;52.002;5.468;2023-01-28T04:26:19;18.45;;;13.52;;
68074;SDS011;54864;52.002;5.468;2023-01-28T04:27:21;18.00;;;13.80;;
68074;SDS011;54864;52.002;5.468;2023-01-28T04:28:22;18.35;;;14.02;;
68074;SDS011;54864;52.002;5.468;2023-01-28T04:29:24;17.45;;;13.20;;
68074;SDS011;54864;52.002;5.468;2023-01-28T04:30:24;17.25;;;13.02;;
68074;SDS011;54864;52.002;5.468;2023-01-28T04:31:27;18.58;;;13.75;;
68074;SDS011;54864;52.002;5.468;2023-01-28T04:32:29;17.02;;;12.88;;
68074;SDS011;54864;52.002;5.468;2023-01-28T04:33:31;18.25;;;13.60;;
68074;SDS011;54864;52.002;5.468;2023-01-28T04:34:32;16.45;;;12.55;;
68074;SDS011;54864;52.002;5.468;2023-01-28T04:35:33;18.42;;;13.73;;
68074;SDS011;54864;52.002;5.468;2023-01-28T04:36:34;18.63;;;13.35;;
68074;SDS011;54864;52.002;5.468;2023-01-28T04:37:36;19.00;;;14.00;;
68074;SDS011;54864;52.002;5.468;2023-01-28T04:38:37;16.80;;;13.00;;
68074;SDS011;54864;52.002;5.468;2023-01-28T04:39:38;19.60;;;14.30;;
68074;SDS011;54864;52.002;5.468;2023-01-28T04:40:40;17.23;;;13.20;;
68074;SDS011;54864;52.002;5.468;2023-01-28T04:41:41;17.25;;;12.70;;
68074;SDS011;54864;52.002;5.468;2023-01-28T04:42:42;19.85;;;14.18;;
68074;SDS011;54864;52.002;5.468;2023-01-28T04:43:52;16.58;;;12.82;;
68074;SDS011;54864;52.002;5.468;2023-01-28T04:44:55;17.45;;;13.60;;
68074;SDS011;54864;52.002;5.468;2023-01-28T04:45:55;17.45;;;13.70;;
68074;SDS011;54864;52.002;5.468;2023-01-28T04:46:57;16.05;;;12.60;;
68074;SDS011;54864;52.002;5.468;2023-01-28T04:47:59;16.23;;;12.98;;
68074;SDS011;54864;52.002;5.468;2023-01-28T04:49:01;16.95;;;13.32;;
68074;SDS011;54864;52.002;5.468;2023-01-28T04:50:02;16.65;;;13.30;;
68074;SDS011;54864;52.002;5.468;2023-01-28T04:51:05;15.77;;;13.23;;
68074;SDS011;54864;52.002;5.468;2023-01-28T04:52:05;15.55;;;12.75;;
68074;SDS011;54864;52.002;5.468;2023-01-28T04:53:07;15.57;;;12.48;;
68074;SDS011;54864;52.002;5.468;2023-01-28T04:54:09;18.55;;;14.05;;
68074;SDS011;54864;52.002;5.468;2023-01-28T04:55:10;15.15;;;12.80;;
68074;SDS011;54864;52.002;5.468;2023-01-28T04:56:11;16.48;;;13.32;;
68074;SDS011;54864;52.002;5.468;2023-01-28T04:57:13;16.08;;;12.90;;
68074;SDS011;54864;52.002;5.468;2023-01-28T04:58:16;16.45;;;13.00;;
68074;SDS011;54864;52.002;5.468;2023-01-28T04:59:18;17.52;;;13.68;;
68074;SDS011;54864;52.002;5.468;2023-01-28T05:00:19;18.67;;;12.90;;
68074;SDS011;54864;52.002;5.468;2023-01-28T05:01:21;16.38;;;12.73;;
68074;SDS011;54864;52.002;5.468;2023-01-28T05:02:22;16.50;;;13.02;;
68074;SDS011;54864;52.002;5.468;2023-01-28T05:03:28;19.10;;;12.57;;
68074;SDS011;54864;52.002;5.468;2023-01-28T05:04:29;15.85;;;12.38;;
68074;SDS011;54864;52.002;5.468;2023-01-28T05:05:32;16.63;;;13.05;;
68074;SDS011;54864;52.002;5.468;2023-01-28T05:06:32;16.23;;;13.20;;
68074;SDS011;54864;52.002;5.468;2023-01-28T05:07:35;17.38;;;13.32;;
68074;SDS011;54864;52.002;5.468;2023-01-28T05:08:36;17.20;;;13.18;;
68074;SDS011;54864;52.002;5.468;2023-01-28T05:09:37;16.38;;;12.90;;
68074;SDS011;54864;52.002;5.468;2023-01-28T05:10:38;17.85;;;13.50;;
68074;SDS011;54864;52.002;5.468;2023-01-28T05:11:40;17.60;;;12.85;;
68074;SDS011;54864;52.002;5.468;2023-01-28T05:12:42;17.15;;;12.88;;
68074;SDS011;54864;52.002;5.468;2023-01-28T05:13:44;15.50;;;12.50;;
68074;SDS011;54864;52.002;5.468;2023-01-28T05:14:45;17.17;;;13.15;;
68074;SDS011;54864;52.002;5.468;2023-01-28T05:15:49;16.55;;;12.88;;
68074;SDS011;54864;52.002;5.468;2023-01-28T05:16:52;17.52;;;13.00;;
68074;SDS011;54864;52.002;5.468;2023-01-28T05:17:54;15.20;;;12.23;;
68074;SDS011;54864;52.002;5.468;2023-01-28T05:18:57;16.42;;;13.35;;
68074;SDS011;54864;52.002;5.468;2023-01-28T05:19:58;16.42;;;13.00;;
68074;SDS011;54864;52.002;5.468;2023-01-28T05:20:59;15.23;;;12.13;;
68074;SDS011;54864;52.002;5.468;2023-01-28T05:22:01;17.17;;;13.13;;
68074;SDS011;54864;52.002;5.468;2023-01-28T05:23:01;16.20;;;12.05;;
68074;SDS011;54864;52.002;5.468;2023-01-28T05:24:03;16.42;;;12.88;;
68074;SDS011;54864;52.002;5.468;2023-01-28T05:25:05;17.25;;;13.38;;
68074;SDS011;54864;52.002;5.468;2023-01-28T05:26:08;16.52;;;12.55;;
68074;SDS011;54864;52.002;5.468;2023-01-28T05:27:09;14.27;;;11.80;;
68074;SDS011;54864;52.002;5.468;2023-01-28T05:28:11;15.02;;;12.13;;
68074;SDS011;54864;52.002;5.468;2023-01-28T05:29:12;16.03;;;12.97;;
68074;SDS011;54864;52.002;5.468;2023-01-28T05:30:13;16.58;;;12.82;;
68074;SDS011;54864;52.002;5.468;2023-01-28T05:31:15;15.55;;;12.48;;
68074;SDS011;54864;52.002;5.468;2023-01-28T05:32:17;17.45;;;12.95;;
68074;SDS011;54864;52.002;5.468;2023-01-28T05:33:18;16.45;;;12.65;;
68074;SDS011;54864;52.002;5.468;2023-01-28T05:34:22;15.38;;;12.25;;
68074;SDS011;54864;52.002;5.468;2023-01-28T05:35:22;16.52;;;12.98;;
68074;SDS011;54864;52.002;5.468;2023-01-28T05:36:24;16.58;;;13.45;;
68074;SDS011;54864;52.002;5.468;2023-01-28T05:37:25;18.07;;;12.63;;
68074;SDS011;54864;52.002;5.468;2023-01-28T05:38:27;14.80;;;11.90;;
68074;SDS011;54864;52.002;5.468;2023-01-28T05:39:28;16.77;;;12.27;;
68074;SDS011;54864;52.002;5.468;2023-01-28T05:40:30;15.77;;;12.95;;
68074;SDS011;54864;52.002;5.468;2023-01-28T05:41:31;15.40;;;12.43;;
68074;SDS011;54864;52.002;5.468;2023-01-28T05:42:33;16.02;;;12.63;;
68074;SDS011;54864;52.002;5.468;2023-01-28T05:43:33;17.60;;;13.75;;
68074;SDS011;54864;52.002;5.468;2023-01-28T05:44:35;15.77;;;12.95;;
68074;SDS011;54864;52.002;5.468;2023-01-28T05:45:37;15.25;;;12.50;;
68074;SDS011;54864;52.002;5.468;2023-01-28T05:46:39;14.60;;;12.18;;
68074;SDS011;54864;52.002;5.468;2023-01-28T05:47:44;15.20;;;13.13;;
68074;SDS011;54864;52.002;5.468;2023-01-28T05:48:46;16.10;;;13.70;;
68074;SDS011;54864;52.002;5.468;2023-01-28T05:49:48;17.23;;;13.50;;
68074;SDS011;54864;52.002;5.468;2023-01-28T05:50:50;16.90;;;13.10;;
68074;SDS011;54864;52.002;5.468;2023-01-28T05:51:51;17.00;;;13.20;;
68074;SDS011;54864;52.002;5.468;2023-01-28T05:52:52;15.30;;;12.68;;
68074;SDS011;54864;52.002;5.468;2023-01-28T05:53:53;14.02;;;12.05;;
68074;SDS011;54864;52.002;5.468;2023-01-28T05:54:55;14.88;;;11.88;;
68074;SDS011;54864;52.002;5.468;2023-01-28T05:55:56;15.97;;;12.37;;
68074;SDS011;54864;52.002;5.468;2023-01-28T05:56:58;14.77;;;12.10;;
68074;SDS011;54864;52.002;5.468;2023-01-28T05:57:58;15.23;;;12.23;;
68074;SDS011;54864;52.002;5.468;2023-01-28T05:59:00;14.93;;;12.45;;
68074;SDS011;54864;52.002;5.468;2023-01-28T06:00:02;18.30;;;12.77;;
68074;SDS011;54864;52.002;5.468;2023-01-28T06:01:05;16.48;;;12.68;;
68074;SDS011;54864;52.002;5.468;2023-01-28T06:02:05;21.27;;;12.23;;
68074;SDS011;54864;52.002;5.468;2023-01-28T06:03:07;17.08;;;13.43;;
68074;SDS011;54864;52.002;5.468;2023-01-28T06:04:08;16.23;;;13.30;;
68074;SDS011;54864;52.002;5.468;2023-01-28T06:05:12;17.03;;;13.43;;
68074;SDS011;54864;52.002;5.468;2023-01-28T06:06:13;17.35;;;13.48;;
68074;SDS011;54864;52.002;5.468;2023-01-28T06:07:14;15.02;;;12.10;;
68074;SDS011;54864;52.002;5.468;2023-01-28T06:08:19;15.27;;;12.27;;
68074;SDS011;54864;52.002;5.468;2023-01-28T06:09:21;16.77;;;12.32;;
68074;SDS011;54864;52.002;5.468;2023-01-28T06:10:22;14.87;;;12.20;;
68074;SDS011;54864;52.002;5.468;2023-01-28T06:11:24;14.48;;;12.38;;
68074;SDS011;54864;52.002;5.468;2023-01-28T06:12:25;16.75;;;12.48;;
68074;SDS011;54864;52.002;5.468;2023-01-28T06:13:28;15.05;;;12.13;;
68074;SDS011;54864;52.002;5.468;2023-01-28T06:14:28;16.23;;;12.83;;
68074;SDS011;54864;52.002;5.468;2023-01-28T06:15:30;16.92;;;12.90;;
68074;SDS011;54864;52.002;5.468;2023-01-28T06:16:31;15.82;;;13.07;;
68074;SDS011;54864;52.002;5.468;2023-01-28T06:17:34;15.85;;;13.38;;